• Join FlightAware (Why Join?)
  • Login
  • US Flag 
06:02AM EDT


 

Airport Tracker/Info


-or-


 

Live Flight TrackerFlight Track Log ✈ AWE594 ✈ 31-Jan-2014 ✈ KPHX - KIAH

Flight Track Log - Related Links

Times and Time Zones

All times are in EST time to prevent confusion due to time zone crossing. See the AWE594 flight status page for this flight to view local times or setup timezone preferences in your user account.

Time Position Orientation Groundspeed Altitude Reporting Facility
EST Latitude Longitude Course Direction KTS MPH feet Rate Location/Type
06:55PM 33.4333 -112.0167 251° West 144 166 1,800  Level Phoenix TRACON
06:57PM 33.4036 -112.1175 251° West 208 239 5,300 2,220 Climbing Albuquerque Center
06:58PM 33.3650 -112.1831 235° Southwest 256 295 7,900 1,260 Climbing Albuquerque Center
06:59PM 33.2942 -112.1539 161° South 277 319 8,000 1,500 Climbing Albuquerque Center
07:00PM 33.2092 -112.1014 153° Southeast 286 329 11,000 2,460 Climbing Albuquerque Center
07:01PM 33.1247 -112.0503 153° Southeast 338 389 13,200 2,460 Climbing Albuquerque Center
07:02PM 33.0331 -111.9961 154° Southeast 363 418 16,100 2,700 Climbing Albuquerque Center
07:03PM 32.9406 -111.9397 153° Southeast 372 428 18,800 2,280 Climbing Albuquerque Center
07:04PM 32.8586 -111.8472 137° Southeast 425 489 20,900 1,800 Climbing Albuquerque Center
07:05PM 32.7992 -111.7200 119° Southeast 443 510 22,600 1,740 Climbing Albuquerque Center
07:06PM 32.7242 -111.5608 119° Southeast 459 528 24,600 1,740 Climbing Albuquerque Center
07:07PM 32.6581 -111.4231 120° Southeast 477 549 26,200 1,500 Climbing Albuquerque Center
07:08PM 32.5919 -111.2833 119° Southeast 484 557 27,700 1,440 Climbing Albuquerque Center
07:09PM 32.5244 -111.1414 119° Southeast 491 565 29,200 1,260 Climbing Albuquerque Center
07:10PM 32.4544 -110.9967 120° Southeast 504 580 30,300 1,380 Climbing Albuquerque Center
07:11PM 32.3700 -110.8197 119° Southeast 513 590 32,100 1,500 Climbing Albuquerque Center
07:12PM 32.3006 -110.6744 119° Southeast 512 589 33,400 960 Climbing Albuquerque Center
07:13PM 32.2283 -110.5289 120° Southeast 513 590 34,200 1,320 Climbing Albuquerque Center
07:14PM 32.1578 -110.3828 120° Southeast 515 593 36,200 1,320 Climbing Albuquerque Center
07:15PM 32.0897 -110.2242 117° Southeast 504 580 37,000 360 Climbing Albuquerque Center
07:16PM 32.0556 -110.0553 103° East 525 604 37,000  Level Albuquerque Center
07:17PM 32.0458 -109.8803 94° East 539 620 37,000  Level Albuquerque Center
07:18PM 32.0372 -109.7097 93° East 529 609 37,000  Level Albuquerque Center
07:19PM 32.0272 -109.5394 94° East 526 605 37,000 -60 Level Albuquerque Center
07:20PM 32.0186 -109.3717 93° East 521 600 36,900  Descending Albuquerque Center
07:21PM 32.0081 -109.1681 93° East 520 598 37,000 60 Climbing Albuquerque Center
07:22PM 31.9978 -108.9942 94° East 525 604 37,100  Climbing Albuquerque Center
07:24PM 31.9875 -108.8214 94° East 529 609 37,000 -60 Descending Albuquerque Center
07:25PM 31.9772 -108.6472 94° East 532 612 37,000  Level Albuquerque Center
07:26PM 31.9664 -108.4736 94° East 535 616 37,000  Level Albuquerque Center
07:27PM 31.9556 -108.2983 94° East 535 616 37,000  Level Albuquerque Center
07:28PM 31.9419 -108.0925 94° East 529 609 37,000  Level Albuquerque Center
07:29PM 31.9306 -107.9192 94° East 532 612 37,000  Level Albuquerque Center
07:30PM 31.9192 -107.7478 94° East 530 610 37,000  Level Albuquerque Center
07:31PM 31.9081 -107.5786 94° East 527 606 37,000  Level Albuquerque Center
07:32PM 31.8969 -107.4139 94° East 515 593 37,000  Level Albuquerque Center
07:33PM 31.8858 -107.2442 94° East 524 603 37,100  Climbing Albuquerque Center
07:34PM 31.8728 -107.0394 94° East 528 608 37,000 -60 Descending Albuquerque Center
07:35PM 31.8608 -106.8719 95° East 521 600 37,000  Level Albuquerque Center
07:36PM 31.8486 -106.7072 95° East 511 588 37,000  Level Albuquerque Center
07:37PM 31.8356 -106.5425 95° East 510 587 37,000  Level Albuquerque Center
07:38PM 31.8250 -106.3744 94° East 515 593 37,000  Level Albuquerque Center
07:39PM 31.8042 -106.1769 97° East 515 593 37,000  Level Albuquerque Center
07:40PM 31.7825 -106.0064 98° East 524 603 37,000  Level Albuquerque Center
07:41PM 31.7619 -105.8325 98° East 534 615 37,000  Level Albuquerque Center
07:42PM 31.7378 -105.6456 99° East 534 615 37,100  Climbing Albuquerque Center
07:43PM 31.7178 -105.4739 98° East 530 610 37,000 -120 Descending Albuquerque Center
07:44PM 31.6947 -105.3028 99° East 528 608 36,900  Descending Albuquerque Center
07:45PM 31.6714 -105.1322 99° East 529 609 37,000  Climbing Albuquerque Center
07:46PM 31.6503 -104.9631 98° East 526 605 36,900 -60 Descending Albuquerque Center
07:47PM 31.6269 -104.7939 99° East 526 605 36,900 240 Level Albuquerque Center
07:48PM 31.6131 -104.6211 95° East 530 610 37,400 960 Climbing Albuquerque Center
07:49PM 31.5917 -104.4553 99° East 520 598 38,900 720 Climbing Albuquerque Center
07:50PM 31.5639 -104.2583 99° East 513 590 39,000  Climbing Albuquerque Center
07:51PM 31.5417 -104.0917 99° East 515 593 38,900  Descending Albuquerque Center
07:52PM 31.5192 -103.9253 99° East 518 596 39,000  Climbing Albuquerque Center
07:53PM 31.4958 -103.7564 99° East 524 603 39,000  Level Albuquerque Center
07:54PM 31.4717 -103.5914 100° East 519 597 39,000  Level Albuquerque Center
07:55PM 31.4514 -103.4261 98° East 514 592 39,000 -60 Level Albuquerque Center
07:56PM 31.4303 -103.2583 98° East 519 597 38,900 -60 Descending Albuquerque Center
07:57PM 31.4058 -103.0611 98° East 514 592 38,900  Level Albuquerque Center
07:58PM 31.3844 -102.8969 99° East 512 589 38,900  Level Albuquerque Center
08:00PM 31.3633 -102.7344 99° East 508 585 38,900  Level Albuquerque Center
08:01PM 31.3428 -102.5711 98° East 507 583 38,900  Level Albuquerque Center
08:02PM 31.3206 -102.4028 99° East 508 585 39,000  Climbing Albuquerque Center
08:03PM 31.2986 -102.2353 99° East 514 592 39,000  Level Albuquerque Center
08:04PM 31.2772 -102.0567 98° East 519 597 39,000 -60 Level Houston Center
08:05PM 31.2542 -101.8903 99° East 520 598 38,900 -60 Descending Houston Center
08:06PM 31.2314 -101.7231 99° East 521 600 38,900  Level Houston Center
08:07PM 31.2083 -101.5544 99° East 526 605 39,000  Climbing Houston Center
08:08PM 31.1814 -101.3533 99° East 524 603 39,000  Level Houston Center
08:09PM 31.1589 -101.1906 99° East 521 600 39,000  Level Houston Center
08:10PM 31.1353 -101.0247 99° East 518 596 39,000  Level Houston Center
08:11PM 31.1122 -100.8603 99° East 514 592 39,000 -60 Level Houston Center
08:12PM 31.0881 -100.6958 100° East 514 592 38,900  Descending Houston Center
08:13PM 31.0642 -100.5319 100° East 512 589 39,000  Climbing Houston Center
08:14PM 31.0353 -100.3364 100° East 510 587 38,900 -60 Descending Houston Center
08:15PM 31.0108 -100.1739 100° East 508 585 38,900  Level Houston Center
08:16PM 30.9872 -100.0103 100° East 510 587 39,000  Climbing Houston Center
08:17PM 30.9678 -99.8453 98° East 513 590 39,000  Level Houston Center
08:18PM 30.9647 -99.6769 91° East 518 596 39,000  Level Houston Center
08:19PM 30.9597 -99.5097 92° East 516 594 39,000 -60 Level Houston Center
08:20PM 30.9561 -99.3436 91° East 513 590 38,900  Descending Houston Center
08:21PM 30.9492 -99.1464 92° East 518 596 39,000 60 Climbing Houston Center
08:22PM 30.9442 -98.9750 92° East 523 602 39,100 -120 Climbing Houston Center
08:23PM 30.9386 -98.8072 92° East 519 597 38,800 -900 Descending Houston Center
08:24PM 30.9328 -98.6406 92° East 513 590 37,300 -900 Descending Houston Center
08:25PM 30.9272 -98.4725 92° East 514 592 37,000 -180 Descending Houston Center
08:26PM 30.9206 -98.3036 93° East 518 596 37,000  Level Houston Center
08:27PM 30.9136 -98.1356 93° East 515 593 37,000  Level Houston Center
08:28PM 30.9078 -97.9686 92° East 514 592 37,000  Level Houston Center
08:29PM 30.9000 -97.8019 93° East 513 590 37,000 -180 Level Houston Center
08:30PM 30.8931 -97.6353 93° East 512 589 36,700 -1,020 Descending Houston Center
08:31PM 30.8844 -97.4419 93° East 511 588 35,000 -1,560 Descending Houston Center
08:32PM 30.8758 -97.2789 93° East 513 590 33,500 -1,440 Descending Houston Center
08:33PM 30.8700 -97.1150 92° East 521 600 32,100 -1,320 Descending Houston Center
08:35PM 30.8622 -96.9478 93° East 517 595 30,900 -2,040 Descending Houston Center
08:36PM 30.8197 -96.7892 107° East 513 590 28,000 -3,120 Descending Houston Center
08:37PM 30.7503 -96.6156 115° Southeast 504 580 24,600 -3,000 Descending Houston Center
08:38PM 30.6958 -96.4747 114° Southeast 480 552 21,900 -2,340 Descending Houston Center
08:39PM 30.6439 -96.3436 115° Southeast 449 517 19,800 -2,100 Descending Houston Center
08:39PM 30.6111 -96.2619 115° Southeast 426 490 18,400 -2,280 Descending Houston Center
08:40PM 30.5950 -96.2192 114° Southeast 425 489 17,500 -2,160 Descending Houston Center
08:41PM 30.5472 -96.1003 115° Southeast 407 468 15,400 -2,160 Descending Houston Center
08:41PM 30.5419 -96.0878 116° Southeast 401 461 15,200 -2,100 Descending Houston Center
08:42PM 30.4911 -95.9628 115° Southeast 380 437 13,000 -1,620 Descending Houston Center
08:43PM 30.4553 -95.8681 114° Southeast 372 428 12,000 -1,140 Descending Houston Center
08:43PM 30.4486 -95.8586 129° Southeast 354 407 11,900 -1,980 Descending Houston Center
08:44PM 30.3875 -95.7933 137° Southeast 344 396 10,000 -1,920 Descending Houston Center
08:44PM 30.3747 -95.7825 144° Southeast 340 391 10,000  Level Houston Center
08:45PM 30.3181 -95.7203 137° Southeast 338 389 10,000  Level Houston Center
08:45PM 30.3031 -95.7061 141° Southeast 338 389 10,000  Level Houston Center
08:46PM 30.2500 -95.6486 137° Southeast 334 384 10,000 -240 Level Houston Center
08:46PM 30.2383 -95.6389 144° Southeast 290 334 9,800 -1,500 Descending Houston Center
08:47PM 30.1850 -95.5825 138° Southeast 285 328 8,500 -1,200 Descending Houston Center
08:47PM 30.1911 -95.5872 326° Northwest 291 335 8,700 -1,440 Climbing Houston Center
08:48PM 30.1269 -95.5217 139° Southeast 278 320 7,100 -1,500 Descending Houston Center
08:48PM 30.1339 -95.5269 327° Northwest 280 322 7,200 -120 Climbing Houston Center
08:49PM 30.1050 -95.4397 111° Southeast 277 319 7,000 -240 Descending Houston Center
08:49PM 30.1056 -95.4497 274° West 283 326 7,000  Level Houston Center
08:50PM 30.1058 -95.3575 90° East 243 280 7,000  Level Houston Center
08:50PM 30.1064 -95.3519 83° East 254 292 7,000  Level Houston Center
08:51PM 30.1061 -95.2742 90° East 244 281 7,000  Level Houston Center
08:51PM 30.1061 -95.2681 90° East 244 281 7,000  Level Houston Center
08:52PM 30.1053 -95.1908 91° East 244 281 7,000  Level Houston Center
08:53PM 30.1047 -95.1186 90° East 245 282 7,000  Level Houston Center
08:53PM 30.1058 -95.1175 41° Northeast 245 282 7,000  Level Houston Center
08:54PM 30.1061 -95.0389 90° East 245 282 7,000  Level Houston Center
08:54PM 30.1050 -95.0317 100° East 245 282 7,000 -540 Level Houston Center
08:55PM 30.0919 -94.9606 102° East 250 288 6,500 -840 Descending Houston Center
08:56PM 30.0356 -94.9447 166° South 226 260 5,400 -780 Descending Houston Center
08:57PM 29.9933 -95.0044 231° Southwest 221 254 5,000 -420 Descending Houston Center
08:57PM 29.9964 -94.9900 76° East 214 246 5,000 -540 Level Houston Center
08:58PM 29.9933 -95.0719 268° West 220 253 4,500 -420 Descending Houston Center
08:58PM 29.9925 -95.0717 164° South 214 246 4,600 -1,260 Climbing Houston Center
08:59PM 29.9928 -95.1347 270° West 190 219 3,200 -1,320 Descending Houston Center
08:59PM 29.9933 -95.1361 295° West 202 232 3,300 -600 Climbing Houston Center
09:00PM 29.9925 -95.1936 269° West 192 221 2,600 -960 Descending Houston Center
09:01PM 29.9933 -95.2500 271° West 183 211 1,400 -960 Descending Houston Center
09:02PM 29.9928 -95.2958 269° West 164 189 700 -540 Descending Houston Center
09:03PM 29.9922 -95.3472 269° West 155 178 400 -300 Descending Houston Center